createdAt,value
2019-03-27T00:00:43.967Z,102959.38
2019-03-27T00:03:12.687Z,102963.22
2019-03-27T00:05:41.449Z,102962.05
2019-03-27T00:08:10.075Z,102960.86
2019-03-27T00:10:38.759Z,102960.69
2019-03-27T00:13:07.599Z,102962.53
2019-03-27T00:15:36.141Z,102961.52
2019-03-27T00:18:05.212Z,102962.88
2019-03-27T00:20:33.946Z,102964.88
2019-03-27T00:23:02.705Z,102956.16
2019-03-27T00:25:31.270Z,102958.03
2019-03-27T00:28:00.034Z,102954.48
2019-03-27T00:30:28.746Z,102951.79
2019-03-27T00:32:57.354Z,102956.47
2019-03-27T00:35:26.047Z,102955.64
2019-03-27T00:37:54.668Z,102961.33
2019-03-27T00:40:23.284Z,102955.80
2019-03-27T00:42:52.042Z,102949.92
2019-03-27T00:45:26.362Z,102951.58
2019-03-27T00:47:51.149Z,102947.89
2019-03-27T00:50:19.776Z,102948.56
2019-03-27T00:52:48.401Z,102944.55
2019-03-27T00:55:17.047Z,102952.56
2019-03-27T00:57:45.717Z,102941.33
2019-03-27T01:00:29.249Z,102941.66
2019-03-27T01:02:57.986Z,102942.16
2019-03-27T01:05:26.711Z,102943.50
2019-03-27T01:07:55.426Z,102941.17
2019-03-27T01:10:24.145Z,102932.11
2019-03-27T01:12:52.833Z,102938.98
2019-03-27T01:15:21.509Z,102940.80
2019-03-27T01:17:50.252Z,102942.63
2019-03-27T01:20:18.967Z,102929.74
2019-03-27T01:22:49.215Z,102940.61
2019-03-27T01:25:17.915Z,102939.09
2019-03-27T01:27:46.611Z,102925.03
2019-03-27T01:30:16.453Z,102930.23
2019-03-27T01:32:45.121Z,102933.62
2019-03-27T01:35:13.980Z,102930.98
2019-03-27T01:37:42.657Z,102936.03
2019-03-27T01:40:11.540Z,102932.99
2019-03-27T01:42:40.229Z,102934.78
2019-03-27T01:45:10.179Z,102939.32
2019-03-27T01:47:38.805Z,102934.48
2019-03-27T01:50:08.038Z,102931.45
2019-03-27T01:52:36.676Z,102940.38
2019-03-27T01:55:07.241Z,102938.84
2019-03-27T01:57:36.072Z,102939.02
2019-03-27T02:00:07.403Z,102942.05
2019-03-27T02:02:36.153Z,102946.07
2019-03-27T02:05:07.392Z,102844.63
2019-03-27T02:07:36.225Z,102949.91
2019-03-27T02:10:09.514Z,102949.27
2019-03-27T02:12:38.134Z,102958.97
2019-03-27T02:15:09.994Z,102948.57
2019-03-27T02:17:38.726Z,102948.57
2019-03-27T02:20:08.171Z,102951.45
2019-03-27T02:22:36.858Z,102953.78
2019-03-27T02:25:07.405Z,102955.11
2019-03-27T02:27:36.098Z,102947.24
2019-03-27T02:30:07.621Z,102939.16
2019-03-27T02:32:36.250Z,102930.92
2019-03-27T02:35:07.394Z,102941.64
2019-03-27T02:37:35.952Z,102891.33
2019-03-27T02:40:07.412Z,102946.67
2019-03-27T02:42:36.369Z,102842.68
2019-03-27T02:45:06.794Z,102938.41
2019-03-27T02:47:35.487Z,102912.72
2019-03-27T02:50:05.930Z,102935.01
2019-03-27T02:52:34.683Z,102934.86
2019-03-27T02:55:03.697Z,102946.22
2019-03-27T02:57:32.514Z,102946.86
2019-03-27T03:00:01.200Z,102938.16
2019-03-27T03:02:29.894Z,102934.95
2019-03-27T03:04:58.618Z,102938.77
2019-03-27T03:07:27.432Z,102940.42
2019-03-27T03:09:56.192Z,102947.75
2019-03-27T03:12:24.958Z,102944.41
2019-03-27T03:14:53.598Z,102946.56
2019-03-27T03:17:22.306Z,102951.27
2019-03-27T03:19:51.104Z,102946.59
2019-03-27T03:22:19.724Z,102949.23
2019-03-27T03:24:48.460Z,102954.12
2019-03-27T03:27:17.164Z,102958.64
2019-03-27T03:29:46.001Z,102958.95
2019-03-27T03:32:14.733Z,102959.73
2019-03-27T03:34:43.512Z,102965.00
2019-03-27T03:37:12.365Z,102956.13
2019-03-27T03:39:41.103Z,102976.33
2019-03-27T03:42:09.729Z,102975.40
2019-03-27T03:44:38.455Z,102970.84
2019-03-27T03:47:07.198Z,102973.34
2019-03-27T03:49:35.943Z,102966.24
2019-03-27T03:52:05.186Z,102966.02
2019-03-27T03:54:33.944Z,102938.11
2019-03-27T03:57:03.856Z,102963.84
2019-03-27T03:59:34.302Z,102955.46
2019-03-27T04:02:04.693Z,102951.33
2019-03-27T04:04:35.656Z,102952.17
2019-03-27T04:07:05.429Z,102946.28
2019-03-27T04:09:34.177Z,102933.38
2019-03-27T04:12:02.848Z,102962.34
2019-03-27T04:14:31.628Z,102959.14
2019-03-27T04:17:16.074Z,102963.97
2019-03-27T04:19:30.780Z,102967.67
2019-03-27T04:21:59.508Z,102973.62
2019-03-27T04:24:28.192Z,102973.15
2019-03-27T04:26:56.934Z,102979.52
2019-03-27T04:29:25.693Z,102980.14
2019-03-27T04:31:54.317Z,102985.06
2019-03-27T04:34:22.868Z,102984.13
2019-03-27T04:36:51.618Z,102985.11
2019-03-27T04:39:20.308Z,102986.59
2019-03-27T04:41:48.911Z,102992.05
2019-03-27T04:44:17.473Z,102990.48
2019-03-27T04:46:46.122Z,102992.92
2019-03-27T04:49:14.856Z,102993.68
2019-03-27T04:51:43.511Z,103006.08
2019-03-27T04:54:12.233Z,103011.78
2019-03-27T04:56:40.879Z,103001.22
2019-03-27T04:59:09.645Z,102997.88
2019-03-27T05:01:38.375Z,102993.31
2019-03-27T05:04:08.134Z,102995.28
2019-03-27T05:06:36.824Z,102994.92
2019-03-27T05:09:08.573Z,102994.83
2019-03-27T05:11:37.478Z,102992.86
2019-03-27T05:14:06.309Z,102994.77
2019-03-27T05:16:34.930Z,103003.33
2019-03-27T05:19:03.655Z,103002.17
2019-03-27T05:21:32.371Z,102924.27
2019-03-27T05:24:01.167Z,103010.55
2019-03-27T05:26:29.903Z,103010.88
2019-03-27T05:28:58.610Z,103005.87
2019-03-27T05:31:27.281Z,103008.90
2019-03-27T05:33:55.993Z,103007.24
2019-03-27T05:36:24.792Z,103008.91
2019-03-27T05:38:53.539Z,103009.43
2019-03-27T05:41:22.423Z,103009.11
2019-03-27T05:43:51.139Z,103017.50
2019-03-27T05:46:19.868Z,103016.02
2019-03-27T05:48:48.677Z,103022.56
2019-03-27T05:51:17.356Z,103026.09
2019-03-27T05:53:45.988Z,103033.17
2019-03-27T05:56:14.669Z,103029.33
2019-03-27T05:58:43.375Z,103028.48
2019-03-27T06:01:12.129Z,103024.11
2019-03-27T06:03:40.882Z,103029.96
2019-03-27T06:06:09.526Z,103029.82
2019-03-27T06:08:38.184Z,103030.48
2019-03-27T06:11:06.908Z,103027.11
2019-03-27T06:13:35.636Z,103029.96
2019-03-27T06:16:05.008Z,103033.02
2019-03-27T06:18:33.652Z,103033.08
2019-03-27T06:21:02.386Z,103034.97
2019-03-27T06:23:31.075Z,103038.64
2019-03-27T06:25:59.715Z,103042.66
2019-03-27T06:28:28.580Z,103039.01
2019-03-27T06:30:58.027Z,103041.95
2019-03-27T06:33:26.738Z,103060.63
2019-03-27T06:35:56.961Z,103038.50
2019-03-27T06:38:25.780Z,103044.88
2019-03-27T06:40:54.661Z,103045.34
2019-03-27T06:43:23.456Z,103044.69
2019-03-27T06:45:52.205Z,103042.22
2019-03-27T06:48:26.272Z,103038.23
2019-03-27T06:50:51.507Z,103042.09
2019-03-27T06:53:20.294Z,103040.40
2019-03-27T06:55:48.962Z,103036.84
2019-03-27T06:58:17.577Z,103031.09
2019-03-27T07:00:46.316Z,103027.63
2019-03-27T07:03:15.063Z,103030.13
2019-03-27T07:05:43.749Z,103028.67
2019-03-27T07:08:12.512Z,103034.44
2019-03-27T07:10:41.145Z,103030.75
2019-03-27T07:13:09.817Z,103035.69
2019-03-27T07:15:38.550Z,103052.63
2019-03-27T07:18:07.395Z,103050.84
2019-03-27T07:20:36.088Z,103053.46
2019-03-27T07:23:04.798Z,103053.24
2019-03-27T07:25:33.639Z,103050.75
2019-03-27T07:28:02.243Z,103047.20
2019-03-27T07:30:30.865Z,103047.38
2019-03-27T07:32:59.527Z,103056.27
2019-03-27T07:35:28.173Z,103062.25
2019-03-27T07:37:56.899Z,103059.69
2019-03-27T07:40:25.560Z,103056.84
2019-03-27T07:42:54.196Z,103051.04
2019-03-27T07:45:22.906Z,103062.94
2019-03-27T07:47:51.584Z,103064.95
2019-03-27T07:50:20.293Z,103068.43
2019-03-27T07:52:48.966Z,103068.94
2019-03-27T07:55:19.503Z,103066.86
2019-03-27T07:57:48.046Z,103067.25
2019-03-27T08:00:20.037Z,103070.74
2019-03-27T08:02:48.835Z,103069.84
2019-03-27T08:05:17.598Z,103068.20
2019-03-27T08:07:47.225Z,103070.66
2019-03-27T08:10:15.890Z,103071.06
2019-03-27T08:12:44.659Z,103071.17
2019-03-27T08:15:14.756Z,103069.25
2019-03-27T08:17:43.487Z,103064.19
2019-03-27T08:20:14.030Z,103061.33
2019-03-27T08:22:42.730Z,103058.03
2019-03-27T08:25:11.830Z,103055.81
2019-03-27T08:27:41.972Z,103060.44
2019-03-27T08:30:17.816Z,103071.33
2019-03-27T08:32:46.589Z,103066.02
2019-03-27T08:35:15.729Z,103062.51
2019-03-27T08:37:44.411Z,103060.53
2019-03-27T08:40:13.742Z,103067.01
2019-03-27T08:42:42.447Z,103071.14
2019-03-27T08:45:11.868Z,103068.08
2019-03-27T08:47:40.611Z,103069.59
2019-03-27T08:50:10.839Z,103072.69
2019-03-27T08:52:39.522Z,103081.31
2019-03-27T08:55:09.869Z,103079.78
2019-03-27T08:57:38.663Z,103081.37
2019-03-27T09:00:09.942Z,103070.66
2019-03-27T09:02:38.784Z,103092.67
2019-03-27T09:05:08.870Z,103096.44
2019-03-27T09:07:37.572Z,103096.65
2019-03-27T09:10:08.932Z,103097.59
2019-03-27T09:12:37.875Z,103091.88
2019-03-27T09:15:09.008Z,103094.62
2019-03-27T09:17:37.826Z,103092.43
2019-03-27T09:20:09.138Z,103093.19
2019-03-27T09:22:37.895Z,103099.61
2019-03-27T09:25:07.797Z,103102.20
2019-03-27T09:27:36.436Z,103100.56
2019-03-27T09:30:08.042Z,103100.79
2019-03-27T09:32:36.906Z,103104.87
2019-03-27T09:35:06.901Z,103103.77
2019-03-27T09:37:35.630Z,103093.47
2019-03-27T09:40:07.090Z,103101.73
2019-03-27T09:42:35.830Z,103101.73
2019-03-27T09:45:08.024Z,103099.37
2019-03-27T09:47:36.973Z,103104.84
2019-03-27T09:50:07.317Z,103103.67
2019-03-27T09:52:36.014Z,103106.41
2019-03-27T09:55:06.165Z,103102.02
2019-03-27T09:57:34.898Z,103102.94
2019-03-27T10:00:05.423Z,103107.16
2019-03-27T10:02:34.138Z,103110.12
2019-03-27T10:05:02.920Z,103107.64
2019-03-27T10:07:31.704Z,103104.52
2019-03-27T10:10:00.517Z,103103.45
2019-03-27T10:12:29.311Z,103099.97
2019-03-27T10:14:57.813Z,103104.86
2019-03-27T10:17:26.505Z,103094.51
2019-03-27T10:20:03.352Z,103102.92
2019-03-27T10:22:25.521Z,103101.95
2019-03-27T10:24:54.130Z,103100.94
2019-03-27T10:27:22.864Z,103095.47
2019-03-27T10:29:51.569Z,103095.18
2019-03-27T10:32:20.313Z,103088.31
2019-03-27T10:34:49.082Z,103088.14
2019-03-27T10:37:17.790Z,103091.20
2019-03-27T10:39:46.493Z,103096.67
2019-03-27T10:42:15.124Z,103092.89
2019-03-27T10:44:43.813Z,103088.23
2019-03-27T10:47:12.515Z,103092.38
2019-03-27T10:49:41.217Z,103091.80
2019-03-27T10:52:09.911Z,103095.22
2019-03-27T10:54:38.534Z,103090.08
2019-03-27T10:57:07.450Z,103101.62
2019-03-27T10:59:36.146Z,103092.84
2019-03-27T11:02:05.302Z,103100.62
2019-03-27T11:04:33.974Z,103099.52
2019-03-27T11:07:02.697Z,103101.40
2019-03-27T11:09:31.410Z,103101.95
2019-03-27T11:12:00.049Z,103090.66
2019-03-27T11:14:37.686Z,103082.59
2019-03-27T11:16:59.244Z,103098.67
2019-03-27T11:19:27.876Z,103105.17
2019-03-27T11:21:56.525Z,103105.70
2019-03-27T11:24:25.285Z,103096.36
2019-03-27T11:26:54.000Z,103104.45
2019-03-27T11:29:22.660Z,103097.52
2019-03-27T11:31:51.434Z,103106.13
2019-03-27T11:34:20.150Z,103098.28
2019-03-27T11:36:48.930Z,103102.98
2019-03-27T11:39:17.765Z,103109.05
2019-03-27T11:41:46.462Z,103106.05
2019-03-27T11:44:15.193Z,103099.07
2019-03-27T11:46:43.925Z,103106.04
2019-03-27T11:49:12.550Z,103097.85
2019-03-27T11:51:41.372Z,103095.84
2019-03-27T11:54:10.141Z,103088.88
2019-03-27T11:56:38.769Z,103088.94
2019-03-27T11:59:07.528Z,103086.58
2019-03-27T12:01:41.976Z,103095.05
2019-03-27T12:04:06.837Z,103093.77
2019-03-27T12:06:35.471Z,103092.41
2019-03-27T12:09:07.652Z,103085.70
2019-03-27T12:11:36.624Z,103083.36
2019-03-27T12:14:05.530Z,103077.91
2019-03-27T12:16:34.231Z,103085.53
2019-03-27T12:19:03.109Z,103088.09
2019-03-27T12:21:31.757Z,103082.56
2019-03-27T12:24:00.387Z,103081.39
2019-03-27T12:26:29.071Z,103078.08
2019-03-27T12:28:57.808Z,103081.44
2019-03-27T12:31:26.556Z,103078.61
2019-03-27T12:33:55.302Z,103065.37
2019-03-27T12:36:23.973Z,103073.81
2019-03-27T12:38:52.695Z,103073.50
2019-03-27T12:41:21.335Z,103068.53
2019-03-27T12:43:50.070Z,103069.80
2019-03-27T12:46:18.812Z,103070.68
2019-03-27T12:48:47.641Z,103069.06
2019-03-27T12:51:16.272Z,103062.54
2019-03-27T12:53:44.963Z,103071.77
2019-03-27T12:56:13.739Z,103070.21
2019-03-27T12:58:42.569Z,103072.19
2019-03-27T13:01:11.311Z,103074.77
2019-03-27T13:03:44.294Z,103072.44
2019-03-27T13:06:18.502Z,103069.97
2019-03-27T13:08:49.607Z,103067.05
2019-03-27T13:11:18.574Z,103071.44
2019-03-27T13:13:47.308Z,103069.09
2019-03-27T13:16:15.876Z,103075.97
2019-03-27T13:18:44.619Z,103074.63
2019-03-27T13:21:25.582Z,103081.27
2019-03-27T13:23:46.077Z,103074.09
2019-03-27T13:26:14.824Z,103076.88
2019-03-27T13:28:49.036Z,103076.61
2019-03-27T13:31:14.031Z,103071.30
2019-03-27T13:33:42.756Z,103068.65
2019-03-27T13:36:11.487Z,103064.49
2019-03-27T13:38:40.206Z,103063.83
2019-03-27T13:41:08.988Z,103066.69
2019-03-27T13:43:37.656Z,103065.38
2019-03-27T13:46:06.348Z,103060.84
2019-03-27T13:48:35.075Z,103060.84
2019-03-27T13:51:03.730Z,103058.89
2019-03-27T13:53:32.392Z,103056.76
2019-03-27T13:56:01.226Z,103056.46
2019-03-27T13:58:29.923Z,103060.47
2019-03-27T14:00:58.885Z,103055.75
2019-03-27T14:03:27.629Z,103049.11
2019-03-27T14:05:56.277Z,103050.66
2019-03-27T14:08:25.035Z,103048.13
2019-03-27T14:10:53.647Z,103047.27
2019-03-27T14:13:22.321Z,103051.40
2019-03-27T14:15:51.144Z,103050.95
2019-03-27T14:18:19.855Z,103057.99
2019-03-27T14:20:48.442Z,103056.71
2019-03-27T14:23:17.230Z,103054.36
2019-03-27T14:25:45.957Z,103059.43
2019-03-27T14:28:14.800Z,103060.84
2019-03-27T14:30:52.257Z,103061.36
2019-03-27T14:33:21.324Z,103062.41
2019-03-27T14:35:50.045Z,103064.53
2019-03-27T14:38:18.715Z,103057.31
2019-03-27T14:40:47.456Z,103061.23
2019-03-27T14:43:16.198Z,103057.97
2019-03-27T14:45:44.868Z,103051.24
2019-03-27T14:48:13.541Z,103061.68
2019-03-27T14:50:42.178Z,103057.88
2019-03-27T14:53:10.803Z,103054.72
2019-03-27T14:55:39.472Z,103059.01
2019-03-27T14:58:08.099Z,103059.56
2019-03-27T15:00:36.972Z,103057.86
2019-03-27T15:03:05.737Z,103054.23
2019-03-27T15:05:34.435Z,103053.48
2019-03-27T15:08:04.343Z,103057.13
2019-03-27T15:10:33.525Z,103004.22
2019-03-27T15:13:02.190Z,103063.25
2019-03-27T15:15:30.911Z,103068.53
2019-03-27T15:17:59.654Z,103065.71
2019-03-27T15:20:28.395Z,103065.87
2019-03-27T15:22:57.020Z,103074.23
2019-03-27T15:25:25.693Z,103060.58
2019-03-27T15:27:54.443Z,103065.38
2019-03-27T15:30:23.186Z,103059.08
2019-03-27T15:32:51.892Z,103062.41
2019-03-27T15:35:20.759Z,103060.45
2019-03-27T15:37:49.434Z,103061.77
2019-03-27T15:40:20.950Z,103057.09
2019-03-27T15:42:49.692Z,103062.56
2019-03-27T15:45:18.322Z,103054.66
2019-03-27T15:47:46.988Z,103057.70
2019-03-27T15:50:15.650Z,103058.18
2019-03-27T15:52:44.420Z,103063.22
2019-03-27T15:55:13.245Z,103059.58
2019-03-27T15:57:41.998Z,103054.01
2019-03-27T16:00:11.615Z,103053.75
2019-03-27T16:02:40.373Z,103054.80
2019-03-27T16:05:09.259Z,103051.73
2019-03-27T16:07:38.065Z,103017.17
2019-03-27T16:10:07.477Z,103060.92
2019-03-27T16:12:36.631Z,103056.23
2019-03-27T16:15:08.791Z,103056.02
2019-03-27T16:17:37.625Z,103062.19
2019-03-27T16:20:07.964Z,103053.76
2019-03-27T16:22:49.967Z,103053.76
2019-03-27T16:25:09.558Z,103057.34
2019-03-27T16:27:38.464Z,103057.68
2019-03-27T16:30:08.791Z,103057.78
2019-03-27T16:32:38.804Z,103059.98
2019-03-27T16:35:09.086Z,103060.59
2019-03-27T16:37:37.949Z,103063.73
2019-03-27T16:40:07.726Z,103064.80
2019-03-27T16:42:36.527Z,103066.46
2019-03-27T16:45:07.931Z,103061.69
2019-03-27T16:47:37.948Z,103065.44
2019-03-27T16:50:09.100Z,103068.69
2019-03-27T16:52:37.867Z,103064.52
2019-03-27T16:55:09.243Z,103066.38
2019-03-27T16:57:38.173Z,103060.89
2019-03-27T17:00:09.009Z,103060.89
2019-03-27T17:02:37.716Z,103071.32
2019-03-27T17:05:09.174Z,103067.30
2019-03-27T17:07:38.139Z,103068.66
2019-03-27T17:10:09.096Z,103072.73
2019-03-27T17:12:37.981Z,103077.03
2019-03-27T17:15:09.896Z,103085.45
2019-03-27T17:17:39.113Z,103080.05
2019-03-27T17:20:10.747Z,103087.23
2019-03-27T17:22:40.762Z,103080.66
2019-03-27T17:25:15.538Z,103090.01
2019-03-27T17:27:44.924Z,103092.60
2019-03-27T17:30:14.255Z,103091.36
2019-03-27T17:32:42.950Z,103093.18
2019-03-27T17:35:13.266Z,103091.83
2019-03-27T17:37:42.084Z,103098.68
2019-03-27T17:40:12.317Z,103102.31
2019-03-27T17:42:40.974Z,103095.25
2019-03-27T17:45:09.945Z,103104.41
2019-03-27T17:47:38.659Z,103067.35
2019-03-27T17:50:08.252Z,103111.47
2019-03-27T17:52:38.413Z,103106.98
2019-03-27T17:55:10.918Z,103114.78
2019-03-27T17:57:39.559Z,103108.36
2019-03-27T18:00:10.537Z,103106.39
2019-03-27T18:02:39.375Z,103116.64
2019-03-27T18:05:08.349Z,103126.02
2019-03-27T18:07:38.768Z,103123.71
2019-03-27T18:10:20.940Z,103126.20
2019-03-27T18:12:55.443Z,103127.78
2019-03-27T18:15:39.466Z,103125.91
2019-03-27T18:18:09.477Z,103127.23
2019-03-27T18:20:51.480Z,103132.31
2019-03-27T18:23:44.875Z,103129.39
2019-03-27T18:26:15.090Z,103135.02
2019-03-27T18:28:45.235Z,103135.31
2019-03-27T18:31:29.503Z,103136.52
2019-03-27T18:34:00.381Z,103135.39
2019-03-27T18:36:30.308Z,103137.47
2019-03-27T18:38:59.268Z,103143.00
2019-03-27T18:41:28.334Z,103138.56
2019-03-27T18:43:57.393Z,103142.95
2019-03-27T18:46:35.830Z,103139.08
2019-03-27T18:49:06.611Z,103146.09
2019-03-27T18:51:35.332Z,103120.16
2019-03-27T18:54:05.228Z,103146.44
2019-03-27T18:56:33.890Z,103141.81
2019-03-27T18:59:02.601Z,103149.65
2019-03-27T19:01:31.276Z,103150.31
2019-03-27T19:03:59.955Z,103152.05
2019-03-27T19:06:28.775Z,103146.26
2019-03-27T19:08:59.831Z,103151.49
2019-03-27T19:11:28.463Z,103150.69
2019-03-27T19:13:57.128Z,103156.87
2019-03-27T19:16:26.372Z,103162.60
2019-03-27T19:18:55.176Z,103167.60
2019-03-27T19:21:23.942Z,103157.12
2019-03-27T19:23:52.632Z,103167.94
2019-03-27T19:26:21.786Z,103170.54
2019-03-27T19:28:53.613Z,103169.91
2019-03-27T19:31:21.952Z,103164.73
2019-03-27T19:33:50.816Z,103169.16
2019-03-27T19:36:19.445Z,103165.31
2019-03-27T19:38:48.068Z,103160.55
2019-03-27T19:41:18.412Z,103168.20
2019-03-27T19:43:47.091Z,103167.73
2019-03-27T19:46:16.042Z,103165.80
2019-03-27T19:48:48.734Z,103164.95
2019-03-27T19:51:30.865Z,103165.09
2019-03-27T19:54:26.409Z,103166.14
2019-03-27T19:56:47.474Z,103168.38
2019-03-27T19:59:16.405Z,103168.63
2019-03-27T20:01:45.128Z,103174.37
2019-03-27T20:04:14.755Z,103173.66
2019-03-27T20:06:43.462Z,103175.97
2019-03-27T20:09:13.134Z,103176.81
2019-03-27T20:11:41.991Z,103188.77
2019-03-27T20:14:11.144Z,103191.38
2019-03-27T20:16:39.912Z,103194.92
2019-03-27T20:19:08.623Z,103198.38
2019-03-27T20:21:38.395Z,103193.48
2019-03-27T20:24:13.346Z,103193.19
2019-03-27T20:26:42.185Z,103194.08
2019-03-27T20:29:12.424Z,103191.17
2019-03-27T20:31:41.431Z,103191.50
2019-03-27T20:34:10.137Z,103181.50
2019-03-27T20:36:39.415Z,103193.74
2019-03-27T20:39:09.788Z,103192.06
2019-03-27T20:41:38.551Z,103193.70
2019-03-27T20:44:07.307Z,103199.73
2019-03-27T20:46:36.013Z,103195.00
2019-03-27T20:49:05.361Z,103201.50
2019-03-27T20:51:34.042Z,103161.70
2019-03-27T20:54:02.661Z,103201.09
2019-03-27T20:56:31.371Z,103194.71
2019-03-27T20:59:01.452Z,103189.13
2019-03-27T21:01:30.685Z,103188.29
2019-03-27T21:04:00.368Z,103195.30
2019-03-27T21:06:29.108Z,103193.61
2019-03-27T21:09:02.409Z,103195.34
2019-03-27T21:11:34.505Z,103196.31
2019-03-27T21:14:03.462Z,103194.33
2019-03-27T21:16:32.488Z,103190.66
2019-03-27T21:19:01.278Z,103198.98
2019-03-27T21:21:29.943Z,103201.30
2019-03-27T21:23:58.798Z,103206.91
2019-03-27T21:26:27.693Z,103203.70
2019-03-27T21:28:56.487Z,103205.94
2019-03-27T21:31:25.156Z,103204.39
2019-03-27T21:33:57.604Z,103207.42
2019-03-27T21:36:25.243Z,103202.81
2019-03-27T21:38:53.900Z,103206.41
2019-03-27T21:41:22.684Z,103204.59
2019-03-27T21:43:51.493Z,103208.69
2019-03-27T21:46:20.314Z,103212.86
2019-03-27T21:48:49.225Z,103214.25
2019-03-27T21:51:18.061Z,103214.97
2019-03-27T21:53:50.556Z,103149.45
2019-03-27T21:56:17.180Z,103214.30
2019-03-27T21:58:45.876Z,103210.62
2019-03-27T22:01:14.582Z,103215.72
2019-03-27T22:03:43.355Z,103213.39
2019-03-27T22:06:12.113Z,103214.78
2019-03-27T22:08:40.773Z,103214.78
2019-03-27T22:11:09.534Z,103210.94
2019-03-27T22:13:38.177Z,103211.37
2019-03-27T22:16:06.896Z,103220.22
2019-03-27T22:18:35.714Z,103220.93
2019-03-27T22:21:04.981Z,103218.09
2019-03-27T22:23:33.682Z,103191.66
2019-03-27T22:26:02.303Z,103219.02
2019-03-27T22:28:30.982Z,103218.47
2019-03-27T22:30:59.693Z,103214.49
2019-03-27T22:33:28.454Z,103210.31
2019-03-27T22:35:57.163Z,103213.89
2019-03-27T22:38:25.933Z,103215.10
2019-03-27T22:40:54.772Z,103213.45
2019-03-27T22:43:23.388Z,103219.52
2019-03-27T22:45:52.102Z,103213.14
2019-03-27T22:48:20.881Z,103213.52
2019-03-27T22:50:49.642Z,103211.66
2019-03-27T22:53:18.397Z,103204.64
2019-03-27T22:55:50.061Z,103211.66
2019-03-27T22:58:17.547Z,103204.13
2019-03-27T23:00:50.838Z,103206.16
2019-03-27T23:03:19.521Z,103210.88
2019-03-27T23:05:48.215Z,103201.09
2019-03-27T23:08:16.837Z,103206.66
2019-03-27T23:10:45.563Z,103205.52
2019-03-27T23:13:14.250Z,103211.08
2019-03-27T23:15:43.023Z,103207.47
2019-03-27T23:18:11.714Z,103217.28
2019-03-27T23:20:40.493Z,103216.95
2019-03-27T23:23:09.181Z,103217.80
2019-03-27T23:25:37.870Z,103217.66
2019-03-27T23:28:06.635Z,103216.17
2019-03-27T23:30:35.273Z,103222.38
2019-03-27T23:33:05.150Z,103223.45
2019-03-27T23:35:33.857Z,103223.45
2019-03-27T23:38:02.485Z,103226.52
2019-03-27T23:40:31.220Z,103226.04
2019-03-27T23:42:59.886Z,103228.45
2019-03-27T23:45:29.147Z,103225.28
2019-03-27T23:47:58.555Z,103227.81
2019-03-27T23:50:27.242Z,103229.05
2019-03-27T23:52:56.066Z,103224.64
2019-03-27T23:55:24.862Z,103225.98
2019-03-27T23:57:53.560Z,103218.40
